createdAt,value
2019-03-13T00:01:07.009Z,2.70
2019-03-13T00:03:36.431Z,2.47
2019-03-13T00:06:05.916Z,2.45
2019-03-13T00:08:35.288Z,2.30
2019-03-13T00:11:04.688Z,2.90
2019-03-13T00:13:34.065Z,2.30
2019-03-13T00:16:03.560Z,2.90
2019-03-13T00:18:33.011Z,2.67
2019-03-13T00:21:02.411Z,2.70
2019-03-13T00:23:31.844Z,2.40
2019-03-13T00:26:01.228Z,2.90
2019-03-13T00:28:30.604Z,2.30
2019-03-13T00:30:59.989Z,2.52
2019-03-13T00:33:29.368Z,2.12
2019-03-13T00:35:58.860Z,2.45
2019-03-13T00:38:28.331Z,2.87
2019-03-13T00:40:57.712Z,2.58
2019-03-13T00:43:27.107Z,1.90
2019-03-13T00:45:56.483Z,2.58
2019-03-13T00:48:25.872Z,2.70
2019-03-13T00:50:55.359Z,2.72
2019-03-13T00:53:24.736Z,1.87
2019-03-13T00:55:54.120Z,2.67
2019-03-13T00:58:25.328Z,2.75
2019-03-13T01:01:16.602Z,4.05
2019-03-13T01:03:50.143Z,2.47
2019-03-13T01:06:25.576Z,2.92
2019-03-13T01:08:55.025Z,2.35
2019-03-13T01:11:27.124Z,2.52
2019-03-13T01:13:55.528Z,3.02
2019-03-13T01:16:24.923Z,2.67
2019-03-13T01:18:54.394Z,2.22
2019-03-13T01:21:23.773Z,2.17
2019-03-13T01:23:53.237Z,2.05
2019-03-13T01:26:22.648Z,2.55
2019-03-13T01:28:52.031Z,2.62
2019-03-13T01:31:49.727Z,2.75
2019-03-13T01:34:28.555Z,2.70
2019-03-13T01:36:57.976Z,2.40
2019-03-13T01:39:27.528Z,2.33
2019-03-13T01:41:56.916Z,2.17
2019-03-13T01:44:26.319Z,2.17
2019-03-13T01:46:55.800Z,2.45
2019-03-13T01:49:25.216Z,2.30
2019-03-13T01:51:54.672Z,2.95
2019-03-13T01:54:24.048Z,2.42
2019-03-13T01:56:53.488Z,2.30
2019-03-13T01:59:22.903Z,2.47
2019-03-13T02:01:52.300Z,3.47
2019-03-13T02:04:21.695Z,2.77
2019-03-13T02:06:51.273Z,2.10
2019-03-13T02:09:20.741Z,2.42
2019-03-13T02:11:50.284Z,2.15
2019-03-13T02:14:19.706Z,2.75
2019-03-13T02:16:49.224Z,2.50
2019-03-13T02:19:18.700Z,2.33
2019-03-13T02:21:48.096Z,2.47
2019-03-13T02:24:17.579Z,2.33
2019-03-13T02:26:47.056Z,2.65
2019-03-13T02:29:16.472Z,2.30
2019-03-13T02:31:45.852Z,2.52
2019-03-13T02:34:15.224Z,2.30
2019-03-13T02:36:44.655Z,2.58
2019-03-13T02:39:14.036Z,2.55
2019-03-13T02:41:43.416Z,2.50
2019-03-13T02:44:12.907Z,2.80
2019-03-13T02:46:42.277Z,2.60
2019-03-13T02:49:11.768Z,2.72
2019-03-13T02:51:41.281Z,2.40
2019-03-13T02:54:10.690Z,2.67
2019-03-13T02:56:40.155Z,2.60
2019-03-13T02:59:11.422Z,2.30
2019-03-13T03:01:47.328Z,2.02
2019-03-13T03:04:35.844Z,2.75
2019-03-13T03:07:05.252Z,3.00
2019-03-13T03:09:35.714Z,2.92
2019-03-13T03:12:05.181Z,1.87
2019-03-13T03:14:34.558Z,2.75
2019-03-13T03:17:04.057Z,2.20
2019-03-13T03:19:33.516Z,2.90
2019-03-13T03:22:02.969Z,2.30
2019-03-13T03:24:32.384Z,2.12
2019-03-13T03:27:01.769Z,2.70
2019-03-13T03:29:31.248Z,2.05
2019-03-13T03:32:00.637Z,2.33
2019-03-13T03:34:30.089Z,2.85
2019-03-13T03:36:59.928Z,2.05
2019-03-13T03:39:29.309Z,2.42
2019-03-13T03:41:58.804Z,2.40
2019-03-13T03:44:28.239Z,2.25
2019-03-13T03:46:57.643Z,2.02
2019-03-13T03:49:27.040Z,1.90
2019-03-13T03:51:56.437Z,2.50
2019-03-13T03:54:25.903Z,2.60
2019-03-13T03:56:55.356Z,2.27
2019-03-13T03:59:24.838Z,2.33
2019-03-13T04:01:54.294Z,2.75
2019-03-13T04:04:23.757Z,2.75
2019-03-13T04:06:53.630Z,2.40
2019-03-13T04:09:23.024Z,2.30
2019-03-13T04:11:52.472Z,3.25
2019-03-13T04:14:21.955Z,2.05
2019-03-13T04:16:51.413Z,2.72
2019-03-13T04:19:20.816Z,2.60
2019-03-13T04:21:50.196Z,2.72
2019-03-13T04:24:19.609Z,2.40
2019-03-13T04:26:49.085Z,2.70
2019-03-13T04:29:18.528Z,2.98
2019-03-13T04:31:47.900Z,2.37
2019-03-13T04:34:17.315Z,2.20
2019-03-13T04:36:46.762Z,2.85
2019-03-13T04:39:16.215Z,2.40
2019-03-13T04:41:45.687Z,3.27
2019-03-13T04:44:15.060Z,3.27
2019-03-13T04:46:44.489Z,3.58
2019-03-13T04:49:13.863Z,2.87
2019-03-13T04:51:43.245Z,3.08
2019-03-13T04:54:12.717Z,2.90
2019-03-13T04:56:42.172Z,2.67
2019-03-13T04:59:11.636Z,3.00
2019-03-13T05:01:41.096Z,2.67
2019-03-13T05:04:10.479Z,2.45
2019-03-13T05:06:39.872Z,3.33
2019-03-13T05:09:11.201Z,3.98
2019-03-13T05:11:40.576Z,2.55
2019-03-13T05:14:09.984Z,3.30
2019-03-13T05:16:39.360Z,3.15
2019-03-13T05:19:08.824Z,3.75
2019-03-13T05:21:38.284Z,3.60
2019-03-13T05:24:07.667Z,3.90
2019-03-13T05:26:37.104Z,4.22
2019-03-13T05:29:06.488Z,4.12
2019-03-13T05:31:35.940Z,4.08
2019-03-13T05:34:05.353Z,4.05
2019-03-13T05:36:34.763Z,5.35
2019-03-13T05:39:05.913Z,4.17
2019-03-13T05:41:35.295Z,4.55
2019-03-13T05:44:04.724Z,4.10
2019-03-13T05:46:34.109Z,4.12
2019-03-13T05:49:03.574Z,4.20
2019-03-13T05:51:33.044Z,4.72
2019-03-13T05:54:02.785Z,3.90
2019-03-13T05:56:32.184Z,4.65
2019-03-13T05:59:01.641Z,4.83
2019-03-13T06:01:31.113Z,4.70
2019-03-13T06:04:00.506Z,5.70
2019-03-13T06:06:29.967Z,3.80
2019-03-13T06:08:59.381Z,4.42
2019-03-13T06:11:28.832Z,3.40
2019-03-13T06:13:58.208Z,3.92
2019-03-13T06:16:27.692Z,5.45
2019-03-13T06:18:57.145Z,3.37
2019-03-13T06:21:26.532Z,4.12
2019-03-13T06:23:55.996Z,4.35
2019-03-13T06:26:25.374Z,4.00
2019-03-13T06:28:54.764Z,3.83
2019-03-13T06:31:24.560Z,3.85
2019-03-13T06:33:53.940Z,4.00
2019-03-13T06:36:23.320Z,3.90
2019-03-13T06:38:52.731Z,3.83
2019-03-13T06:41:22.100Z,3.90
2019-03-13T06:43:51.479Z,4.50
2019-03-13T06:46:20.904Z,4.78
2019-03-13T06:48:50.318Z,3.80
2019-03-13T06:51:19.784Z,3.72
2019-03-13T06:53:49.195Z,3.80
2019-03-13T06:56:18.568Z,3.90
2019-03-13T06:58:53.556Z,3.22
2019-03-13T07:01:35.743Z,3.75
2019-03-13T07:04:23.903Z,4.53
2019-03-13T07:07:18.075Z,5.35
2019-03-13T07:10:09.030Z,4.20
2019-03-13T07:12:57.401Z,4.10
2019-03-13T07:15:35.981Z,4.58
2019-03-13T07:18:39.192Z,5.92
2019-03-13T07:21:32.530Z,4.33
2019-03-13T07:24:23.891Z,4.37
2019-03-13T07:27:12.277Z,4.37
2019-03-13T07:30:09.760Z,3.52
2019-03-13T07:33:07.065Z,3.65
2019-03-13T07:35:44.284Z,4.28
2019-03-13T07:38:31.005Z,3.67
2019-03-13T07:41:10.012Z,4.17
2019-03-13T07:43:46.508Z,4.45
2019-03-13T07:46:49.909Z,4.58
2019-03-13T07:49:36.776Z,5.40
2019-03-13T07:52:18.791Z,3.77
2019-03-13T07:55:16.784Z,3.42
2019-03-13T07:58:05.409Z,4.47
2019-03-13T08:00:48.344Z,3.70
2019-03-13T08:03:37.485Z,3.92
2019-03-13T08:06:26.004Z,4.42
2019-03-13T08:09:13.196Z,3.45
2019-03-13T08:12:07.634Z,3.60
2019-03-13T08:15:01.784Z,3.47
2019-03-13T08:17:37.916Z,3.45
2019-03-13T08:20:26.696Z,3.33
2019-03-13T08:23:23.924Z,4.85
2019-03-13T08:26:07.452Z,3.40
2019-03-13T08:28:45.784Z,2.77
2019-03-13T08:31:32.662Z,3.27
2019-03-13T08:34:23.828Z,3.35
2019-03-13T08:37:12.177Z,2.85
2019-03-13T08:39:50.974Z,3.30
2019-03-13T08:42:48.677Z,3.17
2019-03-13T08:45:39.888Z,2.92
2019-03-13T08:48:31.244Z,3.20
2019-03-13T08:51:08.925Z,2.92
2019-03-13T08:54:09.101Z,2.80
2019-03-13T08:56:59.888Z,2.75
2019-03-13T08:59:41.352Z,2.33
2019-03-13T09:02:32.756Z,2.27
2019-03-13T09:05:30.209Z,2.35
2019-03-13T09:08:17.225Z,2.70
2019-03-13T09:11:06.920Z,1.87
2019-03-13T09:13:49.050Z,2.25
2019-03-13T09:16:40.237Z,2.50
2019-03-13T09:19:40.493Z,2.40
2019-03-13T09:22:34.560Z,2.27
2019-03-13T09:25:22.687Z,2.13
2019-03-13T09:28:00.318Z,2.50
2019-03-13T09:30:57.561Z,1.87
2019-03-13T09:33:44.072Z,2.20
2019-03-13T09:36:50.320Z,2.27
2019-03-13T09:39:53.904Z,1.80
2019-03-13T09:42:31.025Z,2.57
2019-03-13T09:45:31.197Z,3.13
2019-03-13T09:48:16.118Z,2.70
2019-03-13T09:51:04.504Z,2.40
2019-03-13T09:53:59.145Z,2.60
2019-03-13T09:56:53.388Z,2.57
2019-03-13T09:59:43.683Z,2.47
2019-03-13T10:02:32.569Z,2.57
2019-03-13T10:05:26.684Z,2.90
2019-03-13T10:08:15.005Z,2.00
2019-03-13T10:11:07.022Z,2.53
2019-03-13T10:13:45.948Z,2.47
2019-03-13T10:16:30.636Z,2.70
2019-03-13T10:19:22.947Z,2.47
2019-03-13T10:22:09.163Z,2.80
2019-03-13T10:25:09.683Z,2.33
2019-03-13T10:28:04.051Z,2.60
2019-03-13T10:30:52.825Z,3.07
2019-03-13T10:33:53.247Z,2.00
2019-03-13T10:36:31.972Z,2.33
2019-03-13T10:39:20.293Z,2.97
2019-03-13T10:42:17.465Z,3.20
2019-03-13T10:44:56.910Z,3.70
2019-03-13T10:47:35.441Z,3.17
2019-03-13T10:50:20.151Z,4.53
2019-03-13T10:53:00.594Z,2.90
2019-03-13T10:56:05.141Z,4.80
2019-03-13T10:58:50.890Z,3.60
2019-03-13T11:01:38.485Z,3.50
2019-03-13T11:04:32.527Z,3.47
2019-03-13T11:07:09.655Z,2.93
2019-03-13T11:09:47.804Z,3.37
2019-03-13T11:12:23.303Z,3.57
2019-03-13T11:15:20.720Z,3.73
2019-03-13T11:18:10.653Z,3.60
2019-03-13T11:21:14.491Z,3.50
2019-03-13T11:23:53.403Z,3.43
2019-03-13T11:26:40.316Z,4.00
2019-03-13T11:29:31.213Z,5.33
2019-03-13T11:32:28.446Z,6.57
2019-03-13T11:35:18.105Z,5.10
2019-03-13T11:38:04.913Z,6.13
2019-03-13T11:40:48.586Z,5.43
2019-03-13T11:43:35.285Z,5.60
2019-03-13T11:46:25.911Z,5.40
2019-03-13T11:49:25.847Z,5.83
2019-03-13T11:52:16.844Z,5.80
2019-03-13T11:55:17.331Z,6.43
2019-03-13T11:57:58.545Z,5.33
2019-03-13T12:00:46.860Z,6.87
2019-03-13T12:03:28.487Z,8.30
2019-03-13T12:06:25.104Z,7.23
2019-03-13T12:09:12.387Z,7.53
2019-03-13T12:12:12.716Z,8.60
2019-03-13T12:14:50.768Z,8.70
2019-03-13T12:17:57.320Z,9.07
2019-03-13T12:20:51.548Z,8.80
2019-03-13T12:23:42.821Z,8.70
2019-03-13T12:26:42.996Z,8.67
2019-03-13T12:29:43.528Z,8.90
2019-03-13T12:32:29.501Z,9.80
2019-03-13T12:35:11.700Z,9.30
2019-03-13T12:38:03.096Z,9.57
2019-03-13T12:40:45.425Z,11.70
2019-03-13T12:43:36.604Z,9.47
2019-03-13T12:46:34.056Z,11.30
2019-03-13T12:49:17.092Z,10.27
2019-03-13T12:52:08.246Z,11.57
2019-03-13T12:54:55.148Z,11.30
2019-03-13T12:57:51.380Z,10.30
2019-03-13T13:00:26.869Z,11.87
2019-03-13T13:03:13.772Z,10.30
2019-03-13T13:05:51.825Z,10.68
2019-03-13T13:08:40.584Z,11.20
2019-03-13T13:11:41.109Z,12.07
2019-03-13T13:14:45.044Z,12.03
2019-03-13T13:17:33.364Z,12.00
2019-03-13T13:20:04.325Z,12.93
2019-03-13T13:22:33.712Z,12.27
2019-03-13T13:25:03.135Z,11.83
2019-03-13T13:27:32.536Z,10.67
2019-03-13T13:30:01.940Z,10.90
2019-03-13T13:32:31.355Z,11.13
2019-03-13T13:35:00.749Z,11.20
2019-03-13T13:37:30.246Z,11.10
2019-03-13T13:39:59.629Z,10.87
2019-03-13T13:42:30.060Z,9.20
2019-03-13T13:44:59.479Z,11.10
2019-03-13T13:47:29.233Z,10.97
2019-03-13T13:49:59.824Z,10.70
2019-03-13T13:52:29.623Z,10.80
2019-03-13T13:54:59.046Z,10.80
2019-03-13T13:57:28.456Z,10.27
2019-03-13T13:59:59.248Z,9.40
2019-03-13T14:02:28.954Z,10.43
2019-03-13T14:04:58.418Z,9.67
2019-03-13T14:07:27.925Z,10.40
2019-03-13T14:09:57.495Z,8.80
2019-03-13T14:12:26.961Z,7.50
2019-03-13T14:14:57.314Z,8.50
2019-03-13T14:17:26.708Z,7.50
2019-03-13T14:19:56.102Z,7.43
2019-03-13T14:22:25.572Z,7.30
2019-03-13T14:24:54.964Z,6.83
2019-03-13T14:27:24.380Z,7.10
2019-03-13T14:29:53.780Z,7.07
2019-03-13T14:32:23.308Z,6.47
2019-03-13T14:34:52.739Z,7.10
2019-03-13T14:37:22.112Z,5.93
2019-03-13T14:39:51.526Z,6.30
2019-03-13T14:42:22.006Z,6.57
2019-03-13T14:44:51.465Z,9.40
2019-03-13T14:47:20.876Z,7.47
2019-03-13T14:49:50.269Z,6.20
2019-03-13T14:52:19.678Z,5.87
2019-03-13T14:54:49.088Z,5.57
2019-03-13T14:57:18.498Z,5.23
2019-03-13T14:59:47.904Z,6.23
2019-03-13T15:02:17.289Z,6.00
2019-03-13T15:04:46.728Z,6.47
2019-03-13T15:07:16.194Z,5.93
2019-03-13T15:09:45.680Z,5.30
2019-03-13T15:12:15.067Z,5.40
2019-03-13T15:14:44.524Z,5.30
2019-03-13T15:17:13.927Z,5.77
2019-03-13T15:19:43.409Z,5.67
2019-03-13T15:22:12.900Z,5.40
2019-03-13T15:24:42.301Z,5.77
2019-03-13T15:27:11.721Z,5.30
2019-03-13T15:29:41.200Z,4.97
2019-03-13T15:32:10.588Z,4.67
2019-03-13T15:34:41.451Z,4.80
2019-03-13T15:37:11.136Z,5.43
2019-03-13T15:39:40.533Z,5.93
2019-03-13T15:42:09.938Z,5.37
2019-03-13T15:44:39.400Z,4.93
2019-03-13T15:47:08.897Z,4.50
2019-03-13T15:49:38.265Z,5.70
2019-03-13T15:52:07.649Z,5.27
2019-03-13T15:54:37.051Z,5.77
2019-03-13T15:57:06.455Z,5.20
2019-03-13T15:59:35.944Z,5.50
2019-03-13T16:02:05.408Z,4.47
2019-03-13T16:04:34.788Z,6.17
2019-03-13T16:07:04.211Z,5.20
2019-03-13T16:09:33.659Z,4.77
2019-03-13T16:12:03.080Z,4.43
2019-03-13T16:14:32.480Z,4.10
2019-03-13T16:17:01.945Z,3.87
2019-03-13T16:19:31.345Z,4.40
2019-03-13T16:22:00.936Z,5.07
2019-03-13T16:24:30.366Z,4.35
2019-03-13T16:26:59.757Z,4.90
2019-03-13T16:29:30.980Z,4.05
2019-03-13T16:32:00.314Z,3.90
2019-03-13T16:34:29.747Z,4.85
2019-03-13T16:36:59.176Z,4.30
2019-03-13T16:39:28.593Z,5.17
2019-03-13T16:41:58.048Z,4.90
2019-03-13T16:44:27.552Z,5.33
2019-03-13T16:46:56.952Z,6.00
2019-03-13T16:49:26.427Z,5.75
2019-03-13T16:51:55.820Z,5.53
2019-03-13T16:54:25.216Z,6.05
2019-03-13T16:56:54.644Z,6.72
2019-03-13T16:59:24.032Z,6.20
2019-03-13T17:01:53.453Z,6.83
2019-03-13T17:04:22.853Z,5.50
2019-03-13T17:06:53.341Z,5.60
2019-03-13T17:09:22.757Z,7.00
2019-03-13T17:11:52.224Z,8.13
2019-03-13T17:14:21.640Z,6.85
2019-03-13T17:16:51.390Z,7.20
2019-03-13T17:19:20.785Z,7.28
2019-03-13T17:21:50.196Z,7.58
2019-03-13T17:24:19.660Z,8.73
2019-03-13T17:26:49.092Z,8.20
2019-03-13T17:29:18.496Z,6.95
2019-03-13T17:31:47.973Z,7.22
2019-03-13T17:34:17.392Z,7.10
2019-03-13T17:36:46.864Z,8.30
2019-03-13T17:39:16.281Z,7.67
2019-03-13T17:41:45.672Z,7.28
2019-03-13T17:44:34.136Z,6.80
2019-03-13T17:47:03.611Z,7.95
2019-03-13T17:49:34.603Z,7.53
2019-03-13T17:52:03.992Z,6.60
2019-03-13T17:54:33.378Z,7.10
2019-03-13T17:57:02.803Z,7.10
2019-03-13T17:59:32.244Z,6.35
2019-03-13T18:02:01.668Z,7.30
2019-03-13T18:04:32.156Z,6.45
2019-03-13T18:07:01.616Z,6.35
2019-03-13T18:09:31.019Z,6.85
2019-03-13T18:12:00.414Z,6.00
2019-03-13T18:14:32.200Z,7.25
2019-03-13T18:17:01.145Z,7.45
2019-03-13T18:19:30.596Z,6.90
2019-03-13T18:21:59.992Z,6.30
2019-03-13T18:24:29.881Z,6.58
2019-03-13T18:26:59.296Z,7.65
2019-03-13T18:29:28.683Z,6.15
2019-03-13T18:31:58.088Z,5.90
2019-03-13T18:34:27.488Z,7.25
2019-03-13T18:36:56.880Z,7.50
2019-03-13T18:39:26.308Z,7.12
2019-03-13T18:41:55.768Z,6.78
2019-03-13T18:44:25.152Z,6.87
2019-03-13T18:46:54.622Z,6.40
2019-03-13T18:49:24.077Z,7.30
2019-03-13T18:51:53.538Z,6.60
2019-03-13T18:54:23.032Z,6.80
2019-03-13T18:56:52.490Z,6.33
2019-03-13T18:59:22.260Z,6.80
2019-03-13T19:01:51.705Z,7.08
2019-03-13T19:04:21.234Z,6.28
2019-03-13T19:06:50.616Z,7.47
2019-03-13T19:09:20.006Z,7.20
2019-03-13T19:11:49.480Z,7.62
2019-03-13T19:14:18.864Z,7.97
2019-03-13T19:16:48.276Z,8.38
2019-03-13T19:19:17.663Z,7.85
2019-03-13T19:21:47.071Z,8.30
2019-03-13T19:24:16.528Z,7.80
2019-03-13T19:26:45.904Z,9.45
2019-03-13T19:29:15.309Z,8.30
2019-03-13T19:31:44.745Z,7.95
2019-03-13T19:34:14.168Z,8.33
2019-03-13T19:36:45.364Z,8.48
2019-03-13T19:39:14.746Z,8.80
2019-03-13T19:41:44.311Z,9.05
2019-03-13T19:44:13.767Z,9.40
2019-03-13T19:46:43.185Z,8.05
2019-03-13T19:49:12.575Z,9.35
2019-03-13T19:51:41.962Z,9.30
2019-03-13T19:54:11.445Z,11.75
2019-03-13T19:56:41.021Z,11.30
2019-03-13T19:59:10.581Z,11.05
2019-03-13T20:01:40.073Z,10.00
2019-03-13T20:04:09.461Z,11.43
2019-03-13T20:06:42.403Z,10.72
2019-03-13T20:09:10.045Z,12.90
2019-03-13T20:11:39.448Z,11.83
2019-03-13T20:14:08.834Z,10.20
2019-03-13T20:16:38.317Z,11.83
2019-03-13T20:19:07.741Z,13.80
2019-03-13T20:21:37.227Z,13.40
2019-03-13T20:24:25.643Z,10.10
2019-03-13T20:26:55.056Z,10.95
2019-03-13T20:29:24.444Z,12.25
2019-03-13T20:31:53.902Z,12.73
2019-03-13T20:34:23.385Z,13.10
2019-03-13T20:36:53.077Z,11.95
2019-03-13T20:39:22.565Z,13.85
2019-03-13T20:41:54.229Z,12.20
2019-03-13T20:44:23.066Z,12.43
2019-03-13T20:46:52.481Z,11.68
2019-03-13T20:49:21.866Z,13.08
2019-03-13T20:51:52.816Z,13.43
2019-03-13T20:54:22.311Z,13.15
2019-03-13T20:56:51.701Z,11.75
2019-03-13T20:59:21.176Z,14.13
2019-03-13T21:01:50.635Z,15.03
2019-03-13T21:04:20.165Z,14.25
2019-03-13T21:06:49.616Z,13.80
2019-03-13T21:09:19.006Z,14.63
2019-03-13T21:11:48.556Z,14.85
2019-03-13T21:14:18.012Z,14.05
2019-03-13T21:16:47.436Z,15.08
2019-03-13T21:19:16.825Z,14.10
2019-03-13T21:21:46.808Z,13.62
2019-03-13T21:24:16.288Z,14.38
2019-03-13T21:26:45.760Z,15.50
2019-03-13T21:29:15.177Z,14.43
2019-03-13T21:31:44.628Z,14.58
2019-03-13T21:34:14.024Z,15.28
2019-03-13T21:36:43.500Z,15.83
2019-03-13T21:39:12.887Z,17.65
2019-03-13T21:41:42.305Z,16.45
2019-03-13T21:44:11.696Z,16.52
2019-03-13T21:46:41.156Z,16.07
2019-03-13T21:49:10.562Z,17.30
2019-03-13T21:51:40.043Z,14.35
2019-03-13T21:54:09.480Z,13.40
2019-03-13T21:56:38.892Z,15.30
2019-03-13T21:59:08.281Z,18.15
2019-03-13T22:01:37.769Z,16.15
2019-03-13T22:04:07.958Z,15.32
2019-03-13T22:06:37.545Z,16.40
2019-03-13T22:09:07.440Z,16.32
2019-03-13T22:11:36.900Z,18.87
2019-03-13T22:14:06.300Z,16.75
2019-03-13T22:16:35.704Z,17.40
2019-03-13T22:19:05.191Z,17.65
2019-03-13T22:21:34.577Z,17.23
2019-03-13T22:24:03.960Z,15.72
2019-03-13T22:26:33.357Z,17.15
2019-03-13T22:29:02.828Z,17.40
2019-03-13T22:31:32.241Z,15.38
2019-03-13T22:34:01.625Z,18.57
2019-03-13T22:36:31.013Z,16.73
2019-03-13T22:39:00.417Z,17.15
2019-03-13T22:41:29.788Z,17.85
2019-03-13T22:43:59.196Z,18.35
2019-03-13T22:46:28.580Z,16.82
2019-03-13T22:48:58.697Z,18.37
2019-03-13T22:51:28.345Z,18.75
2019-03-13T22:53:58.067Z,21.97
2019-03-13T22:56:27.529Z,18.85
2019-03-13T22:58:56.908Z,19.15
2019-03-13T23:01:26.720Z,21.20
2019-03-13T23:03:56.297Z,20.30
2019-03-13T23:06:26.611Z,20.57
2019-03-13T23:08:56.025Z,21.50
2019-03-13T23:11:25.479Z,19.85
2019-03-13T23:13:54.884Z,22.37
2019-03-13T23:16:24.446Z,18.90
2019-03-13T23:18:54.044Z,21.77
2019-03-13T23:21:23.532Z,20.97
2019-03-13T23:23:52.922Z,21.02
2019-03-13T23:26:22.375Z,19.95
2019-03-13T23:28:51.986Z,21.73
2019-03-13T23:31:21.595Z,20.60
2019-03-13T23:33:51.151Z,19.37
2019-03-13T23:36:20.536Z,21.75
2019-03-13T23:38:49.917Z,19.98
2019-03-13T23:41:19.392Z,20.97
2019-03-13T23:43:48.777Z,21.97
2019-03-13T23:46:18.261Z,21.57
2019-03-13T23:48:47.711Z,21.40
2019-03-13T23:51:17.091Z,21.23
2019-03-13T23:53:46.668Z,21.02
2019-03-13T23:56:16.057Z,21.45
2019-03-13T23:58:45.464Z,20.05
